메인 페이지
METAR-TAF:

METAR-TAF

공항 :

마타베리 국제공항

이스터 섬, 칠레

위도: 27-09S, 경도: 109-25W, 고도: 51m

현재 날씨관측

예보는 37분 전, 18:00시(UTC)에 발표되었습니다.
동남동15kt
온도 22°C
습도 73%
기압 1026 hPa
시정 10km 이상
고도 2500ft 상공 구름 많음

METAR: SCIP 221800Z 11015KT 9999 BKN025 22/17 Q1026 NOSIG

시각: 12:37 (18:37 UTC)

예보

예보는 1 시간 57분 전, 16:40시(UTC)에 발표되었습니다.
예보 대상 시간: 22일 18시부터 23일 18시까지 (UTC)
동남동15kt
시정 10km 이상
고도 2000ft 상공 구름 보통
일시적
22일 22시부터 23일 01시까지 (UTC)
20kt
시정: 7000m
고도 1800ft 상공 구름 보통
고도 4000ft 상공 구름 많음
약한소나기
일시적
23일 05시부터 23일 11시까지 (UTC)
10kt
시정: 7000m
고도 1800ft 상공 구름 보통
고도 4000ft 상공 구름 많음
약한소나기
전환 중
23일 12시부터 23일 14시까지 (UTC)
고도 2000ft 상공 구름 보통
고도 5000ft 상공 구름 보통

TAF: SCIP 221640Z 2218/2318 11015KT 9999 SCT020 TX23/2220Z TN17/2310Z TEMPO 2222/2301 08020KT 7000 -SHRA SCT018 BKN040 TEMPO 2305/2311 08010KT 7000 -SHRA SCT018 BKN040 BECMG 2312/2314 SCT020 SCT050

4,000개 이상의 공항 관측 자료 및 예보 (METAR 및 TAF 보고).

지도상에서 검색 가능한 기상관측소가 노란 점과 빨간 점으로 표시되어 있습니다.

기상관측소 명을 보려면 표시 위로 마우스를 이동하세요.

날씨 관측과 예보를 보려면 클릭하세요.

지도 변경 : 확대하려면 엑스 표시가 있는 녹색 버튼, 축소하려면 빼기 표시가 있는 녹색 버튼, 다음 페이지의 지도를 보려면 녹색 화살표를 클릭하세요.


METAR-TAF: